F/V Anna Mamm Mari — FOHD — position and weather

sailwx.info

Track history (hours):
 
Tides and Currents Weather Stations Pressure Air Temp Water Temp Dewpoint Dewpoint Depression Visibility Wind Speed Wind Dir Waves Ship Positions

F/V Anna Mamm Mari

Last reported at 2017-Jul-28 18:49 UTC. Time now 2017-Jul-29 11:52 UTC.
Position N 46°12' W 001°49'.

Length 17 m.

Type: Fishing. MMSI: 228393000.

Date/timePositionNaut miles runAvg speedWind from/ knotsBaromVisibWave heightAir tempDewpointWater temp
2017-Jul-28 18:49N 46°12' W 001°49'1 2.1
2017-Jul-28 18:21N 46°11' W 001°50'1 1.9
2017-Jul-28 17:51N 46°11' W 001°50'2 1.3
2017-Jul-28 16:40N 46°12' W 001°51'6 7.4
2017-Jul-28 15:47N 46°12' W 001°42'6 0.9
2017-Jul-28 09:03N 46°12' W 001°50'0 1.7
2017-Jul-28 09:00N 46°12' W 001°50'1 1.3
2017-Jul-28 08:23N 46°11' W 001°49'0 0.5
2017-Jul-28 07:56N 46°11' W 001°49'1 2.0
2017-Jul-28 07:30N 46°12' W 001°50'1 1.0
2017-Jul-28 06:46N 46°12' W 001°49'1 1.6
2017-Jul-28 06:24N 46°12' W 001°50'1 1.3
2017-Jul-28 05:43N 46°12' W 001°49'0 0.3
2017-Jul-28 05:17N 46°12' W 001°49'1 2.0
2017-Jul-28 05:00N 46°12' W 001°50'0 0.2
2017-Jul-28 04:30N 46°12' W 001°50'1 0.1
2017-Jul-27 18:15N 46°11' W 001°49'2 4.3
2017-Jul-27 17:50N 46°13' W 001°49'3 9.0
2017-Jul-27 17:30N 46°16' W 001°49'4 9.1
2017-Jul-27 17:00N 46°20' W 001°48'5 9.1
2017-Jul-27 16:30N 46°25' W 001°48'4 9.0
2017-Jul-27 16:00N 46°29' W 001°48'0 1.0
2017-Jul-27 15:30N 46°30' W 001°47'0 0.0
2017-Jul-27 15:00N 46°30' W 001°47'0 0.0
2017-Jul-27 14:00N 46°30' W 001°47'0 0.0
2017-Jul-27 13:30N 46°30' W 001°47'0 0.0
2017-Jul-27 13:00N 46°30' W 001°47'0 0.0
2017-Jul-27 12:31N 46°30' W 001°47'0 0.0
2017-Jul-27 12:01N 46°30' W 001°47'0 0.0
2017-Jul-27 11:30N 46°30' W 001°47'0 0.0
2017-Jul-27 11:00N 46°30' W 001°47'0 0.0
2017-Jul-27 10:31N 46°30' W 001°47'0 0.0
2017-Jul-27 10:00N 46°30' W 001°47'0 0.0
2017-Jul-27 09:30N 46°30' W 001°47'0 0.0
2017-Jul-27 09:00N 46°30' W 001°47'0 0.0
2017-Jul-27 08:31N 46°30' W 001°47'0 0.0
2017-Jul-27 08:00N 46°30' W 001°47'0 0.0
2017-Jul-27 07:30N 46°30' W 001°47'0 0.0
2017-Jul-27 07:00N 46°30' W 001°47'0 0.0
2017-Jul-27 06:30N 46°30' W 001°47'0 0.0
2017-Jul-27 06:01N 46°30' W 001°47'0 0.0
2017-Jul-27 05:31N 46°30' W 001°47'0 0.0
2017-Jul-27 05:00N 46°30' W 001°47'0 0.0
2017-Jul-27 04:30N 46°30' W 001°47'0 0.0
2017-Jul-27 04:00N 46°30' W 001°47'0 0.0
2017-Jul-27 03:30N 46°30' W 001°47'0 0.0
2017-Jul-27 03:00N 46°30' W 001°47'0 0.0
2017-Jul-27 02:30N 46°30' W 001°47'0 0.0
2017-Jul-27 02:00N 46°30' W 001°47'0 0.0
2017-Jul-27 01:31N 46°30' W 001°47'0 0.0
2017-Jul-27 01:00N 46°30' W 001°47'0 0.0
2017-Jul-27 00:30N 46°30' W 001°47'0 0.0
2017-Jul-27 00:00N 46°30' W 001°47'0 0.0
2017-Jul-26 23:30N 46°30' W 001°47'0 0.0
2017-Jul-26 23:00N 46°30' W 001°47'0 0.0
2017-Jul-26 22:31N 46°30' W 001°47'0 0.0
2017-Jul-26 22:01N 46°30' W 001°47'0 0.0
2017-Jul-26 21:31N 46°30' W 001°47'0 0.0
2017-Jul-26 21:01N 46°30' W 001°47'0 0.0
2017-Jul-26 20:31N 46°30' W 001°47'0 0.0
2017-Jul-26 20:01N 46°30' W 001°47'0 0.0
2017-Jul-26 19:30N 46°30' W 001°47'0 0.0
2017-Jul-26 19:00N 46°30' W 001°47'0 0.0
2017-Jul-26 18:30N 46°30' W 001°47'0 0.0
2017-Jul-26 18:00N 46°30' W 001°47'0 0.0
2017-Jul-26 17:30N 46°30' W 001°47'0 0.0
2017-Jul-26 17:00N 46°30' W 001°47'0 0.0
2017-Jul-26 16:31N 46°30' W 001°47'0 0.0
2017-Jul-26 16:00N 46°30' W 001°47'0 0.0
2017-Jul-26 15:31N 46°30' W 001°47'0 0.0
2017-Jul-26 15:00N 46°30' W 001°47'0 0.0
2017-Jul-26 14:01N 46°30' W 001°47'0 0.0
2017-Jul-26 13:24N 46°30' W 001°47'0 0.0
2017-Jul-26 13:00N 46°30' W 001°47'0 0.3
2017-Jul-26 12:30N 46°30' W 001°47'0 0.0
2017-Jul-26 12:00N 46°30' W 001°47'0 0.0
2017-Jul-26 11:30N 46°30' W 001°47'0 0.0
2017-Jul-26 11:00N 46°30' W 001°47'0 0.0
2017-Jul-26 10:30N 46°30' W 001°47'0 0.8
2017-Jul-26 10:00N 46°30' W 001°48'4 8.7
2017-Jul-26 09:30N 46°25' W 001°48'4 8.9
2017-Jul-26 09:00N 46°21' W 001°49'4 8.7
2017-Jul-26 08:30N 46°17' W 001°50'4 8.8
2017-Jul-26 08:00N 46°12' W 001°51'0 0.8
2017-Jul-26 07:29N 46°12' W 001°51'0 0.8
2017-Jul-26 07:00N 46°12' W 001°50'1 2.0
2017-Jul-26 06:29N 46°12' W 001°49'1 0.0
2017-Jul-25 13:49N 46°13' W 001°49'0 0.9
2017-Jul-25 13:28N 46°12' W 001°49'1 1.4
2017-Jul-25 13:00N 46°12' W 001°49'2 0.8
2017-Jul-25 11:00N 46°11' W 001°47'0 0.3
2017-Jul-25 09:35N 46°10' W 001°47'0 2.4
2017-Jul-25 09:30N 46°10' W 001°47'7 1.2
2017-Jul-25 03:42N 46°17' W 001°46'2 9.0
2017-Jul-25 03:26N 46°20' W 001°46'4 9.1
2017-Jul-25 03:00N 46°24' W 001°47'4 9.0
2017-Jul-25 02:30N 46°28' W 001°47'2 3.5
2017-Jul-25 02:00N 46°30' W 001°47'0 0.0
2017-Jul-25 01:30N 46°30' W 001°47'0 0.0
2017-Jul-25 01:00N 46°30' W 001°47'0 0.0
2017-Jul-25 00:30N 46°30' W 001°47'0 0.0
2017-Jul-25 00:00N 46°30' W 001°47'0 0.0
2017-Jul-24 23:30N 46°30' W 001°47'0 0.0
2017-Jul-24 23:00N 46°30' W 001°47'0 0.0
2017-Jul-24 22:30N 46°30' W 001°47'0 0.0
2017-Jul-24 22:00N 46°30' W 001°47'0 0.0
2017-Jul-24 21:30N 46°30' W 001°47'0 0.0
2017-Jul-24 21:00N 46°30' W 001°47'0 0.0
2017-Jul-24 20:30N 46°30' W 001°47'0 0.0
2017-Jul-24 20:00N 46°30' W 001°47'0 0.0
2017-Jul-24 19:30N 46°30' W 001°47'0 0.0
2017-Jul-24 19:00N 46°30' W 001°47'0 0.0
2017-Jul-24 18:30N 46°30' W 001°47'0 0.0
2017-Jul-24 18:00N 46°30' W 001°47'0 0.0
2017-Jul-24 17:30N 46°30' W 001°47'0 0.1
2017-Jul-24 17:00N 46°30' W 001°47'0 0.0
2017-Jul-24 16:30N 46°30' W 001°47'0 0.0
2017-Jul-24 16:00N 46°30' W 001°47'0 0.0
2017-Jul-24 13:00N 46°30' W 001°47'1 2.7
2017-Jul-24 12:30N 46°29' W 001°47'4 8.0
2017-Jul-24 12:00N 46°25' W 001°46'4 8.4
2017-Jul-24 11:30N 46°20' W 001°46'4 8.7
2017-Jul-24 11:00N 46°16' W 001°46'5 0.3
2017-Jul-23 16:50N 46°11' W 001°48'2 7.4
2017-Jul-23 16:30N 46°12' W 001°50'21 0.7
2017-Jul-22 09:47N 46°07' W 001°20'2 7.4
2017-Jul-22 09:30N 46°07' W 001°17'3 6.1
2017-Jul-22 09:00N 46°09' W 001°13'0 0.0
2017-Jul-22 08:30N 46°09' W 001°13'0 0.0
2017-Jul-22 08:00N 46°09' W 001°13'0 0.0
2017-Jul-22 07:30N 46°09' W 001°13'0 0.0
2017-Jul-22 07:00N 46°09' W 001°13'0 0.0
2017-Jul-22 06:30N 46°09' W 001°13'0 0.0
2017-Jul-22 06:00N 46°09' W 001°13'0 0.0
2017-Jul-22 05:31N 46°09' W 001°13'0 0.0
2017-Jul-22 05:00N 46°09' W 001°13'0 0.0
2017-Jul-22 04:30N 46°09' W 001°13'0 0.2
2017-Jul-22 04:00N 46°09' W 001°13'4 8.1
2017-Jul-22 03:30N 46°07' W 001°18'5 9.0
2017-Jul-22 03:00N 46°07' W 001°25'3 0.1
2017-Jul-21 03:16N 46°07' W 001°21'3 9.8
2017-Jul-21 03:00N 46°07' W 001°18'4 7.0
2017-Jul-21 02:30N 46°09' W 001°13'0 0.0
2017-Jul-21 02:01N 46°09' W 001°13'0 0.0
2017-Jul-21 01:30N 46°09' W 001°13'0 0.0
2017-Jul-21 01:01N 46°09' W 001°13'0 0.0
2017-Jul-21 00:30N 46°09' W 001°13'0 0.0
2017-Jul-21 00:00N 46°09' W 001°13'0 0.0
2017-Jul-20 23:31N 46°09' W 001°13'0 0.0
2017-Jul-20 23:00N 46°09' W 001°13'0 0.0
2017-Jul-20 22:30N 46°09' W 001°13'0 0.0
2017-Jul-20 22:01N 46°09' W 001°13'0 0.0
2017-Jul-20 21:30N 46°09' W 001°13'0 0.0
2017-Jul-20 21:00N 46°09' W 001°13'4 8.0
2017-Jul-20 20:30N 46°07' W 001°18'5 9.7
2017-Jul-20 20:00N 46°07' W 001°25'21 0.5
2017-Jul-19 02:49N 46°15' W 001°54'3 8.6
2017-Jul-19 02:27N 46°18' W 001°55'4 8.7
2017-Jul-19 02:00N 46°22' W 001°57'4 7.5
2017-Jul-19 01:30N 46°25' W 001°59'4 9.0
2017-Jul-19 01:00N 46°27' W 001°53'4 8.7
2017-Jul-19 00:30N 46°29' W 001°47'1 2.3
2017-Jul-19 00:00N 46°30' W 001°47'0 0.0
2017-Jul-18 23:30N 46°30' W 001°47'0 0.0
2017-Jul-18 23:00N 46°30' W 001°47'0 0.0
2017-Jul-18 22:30N 46°30' W 001°47'0 0.0
2017-Jul-18 22:00N 46°30' W 001°47'0 0.0
2017-Jul-18 21:30N 46°30' W 001°47'0 0.0
2017-Jul-18 21:00N 46°30' W 001°47'0 0.0
2017-Jul-18 20:30N 46°30' W 001°47'0 0.0
2017-Jul-18 20:00N 46°30' W 001°47'0 0.0
2017-Jul-18 19:30N 46°30' W 001°47'0 0.0
2017-Jul-18 19:00N 46°30' W 001°47'  
Track history (hours):
 
Tides and Currents Weather Stations Pressure Air Temp Water Temp Dewpoint Dewpoint Depression Visibility Wind Speed Wind Dir Waves Ship Positions

F/V Anna Mamm Mari

Last reported at 2017-Jul-28 18:49 UTC. Time now 2017-Jul-29 11:52 UTC.
Position N 46°12' W 001°49'.

Length 17 m.

Type: Fishing. MMSI: 228393000.

Date/timePositionNaut miles runAvg speedWind from/ knotsBaromVisibWave heightAir tempDewpointWater temp
2017-Jul-28 18:49N 46°12' W 001°49'1 2.1
2017-Jul-28 18:21N 46°11' W 001°50'1 1.9
2017-Jul-28 17:51N 46°11' W 001°50'2 1.3
2017-Jul-28 16:40N 46°12' W 001°51'6 7.4
2017-Jul-28 15:47N 46°12' W 001°42'6 0.9
2017-Jul-28 09:03N 46°12' W 001°50'0 1.7
2017-Jul-28 09:00N 46°12' W 001°50'1 1.3
2017-Jul-28 08:23N 46°11' W 001°49'0 0.5
2017-Jul-28 07:56N 46°11' W 001°49'1 2.0
2017-Jul-28 07:30N 46°12' W 001°50'1 1.0
2017-Jul-28 06:46N 46°12' W 001°49'1 1.6
2017-Jul-28 06:24N 46°12' W 001°50'1 1.3
2017-Jul-28 05:43N 46°12' W 001°49'0 0.3
2017-Jul-28 05:17N 46°12' W 001°49'1 2.0
2017-Jul-28 05:00N 46°12' W 001°50'0 0.2
2017-Jul-28 04:30N 46°12' W 001°50'1 0.1
2017-Jul-27 18:15N 46°11' W 001°49'2 4.3
2017-Jul-27 17:50N 46°13' W 001°49'3 9.0
2017-Jul-27 17:30N 46°16' W 001°49'4 9.1
2017-Jul-27 17:00N 46°20' W 001°48'5 9.1
2017-Jul-27 16:30N 46°25' W 001°48'4 9.0
2017-Jul-27 16:00N 46°29' W 001°48'0 1.0
2017-Jul-27 15:30N 46°30' W 001°47'0 0.0
2017-Jul-27 15:00N 46°30' W 001°47'0 0.0
2017-Jul-27 14:00N 46°30' W 001°47'0 0.0
2017-Jul-27 13:30N 46°30' W 001°47'0 0.0
2017-Jul-27 13:00N 46°30' W 001°47'0 0.0
2017-Jul-27 12:31N 46°30' W 001°47'0 0.0
2017-Jul-27 12:01N 46°30' W 001°47'0 0.0
2017-Jul-27 11:30N 46°30' W 001°47'0 0.0
2017-Jul-27 11:00N 46°30' W 001°47'0 0.0
2017-Jul-27 10:31N 46°30' W 001°47'0 0.0
2017-Jul-27 10:00N 46°30' W 001°47'0 0.0
2017-Jul-27 09:30N 46°30' W 001°47'0 0.0
2017-Jul-27 09:00N 46°30' W 001°47'0 0.0
2017-Jul-27 08:31N 46°30' W 001°47'0 0.0
2017-Jul-27 08:00N 46°30' W 001°47'0 0.0
2017-Jul-27 07:30N 46°30' W 001°47'0 0.0
2017-Jul-27 07:00N 46°30' W 001°47'0 0.0
2017-Jul-27 06:30N 46°30' W 001°47'0 0.0
2017-Jul-27 06:01N 46°30' W 001°47'0 0.0
2017-Jul-27 05:31N 46°30' W 001°47'0 0.0
2017-Jul-27 05:00N 46°30' W 001°47'0 0.0
2017-Jul-27 04:30N 46°30' W 001°47'0 0.0
2017-Jul-27 04:00N 46°30' W 001°47'0 0.0
2017-Jul-27 03:30N 46°30' W 001°47'0 0.0
2017-Jul-27 03:00N 46°30' W 001°47'0 0.0
2017-Jul-27 02:30N 46°30' W 001°47'0 0.0
2017-Jul-27 02:00N 46°30' W 001°47'0 0.0
2017-Jul-27 01:31N 46°30' W 001°47'0 0.0
2017-Jul-27 01:00N 46°30' W 001°47'0 0.0
2017-Jul-27 00:30N 46°30' W 001°47'0 0.0
2017-Jul-27 00:00N 46°30' W 001°47'0 0.0
2017-Jul-26 23:30N 46°30' W 001°47'0 0.0
2017-Jul-26 23:00N 46°30' W 001°47'0 0.0
2017-Jul-26 22:31N 46°30' W 001°47'0 0.0
2017-Jul-26 22:01N 46°30' W 001°47'0 0.0
2017-Jul-26 21:31N 46°30' W 001°47'0 0.0
2017-Jul-26 21:01N 46°30' W 001°47'0 0.0
2017-Jul-26 20:31N 46°30' W 001°47'0 0.0
2017-Jul-26 20:01N 46°30' W 001°47'0 0.0
2017-Jul-26 19:30N 46°30' W 001°47'0 0.0
2017-Jul-26 19:00N 46°30' W 001°47'0 0.0
2017-Jul-26 18:30N 46°30' W 001°47'0 0.0
2017-Jul-26 18:00N 46°30' W 001°47'0 0.0
2017-Jul-26 17:30N 46°30' W 001°47'0 0.0
2017-Jul-26 17:00N 46°30' W 001°47'0 0.0
2017-Jul-26 16:31N 46°30' W 001°47'0 0.0
2017-Jul-26 16:00N 46°30' W 001°47'0 0.0
2017-Jul-26 15:31N 46°30' W 001°47'0 0.0
2017-Jul-26 15:00N 46°30' W 001°47'0 0.0
2017-Jul-26 14:01N 46°30' W 001°47'0 0.0
2017-Jul-26 13:24N 46°30' W 001°47'0 0.0
2017-Jul-26 13:00N 46°30' W 001°47'0 0.3
2017-Jul-26 12:30N 46°30' W 001°47'0 0.0
2017-Jul-26 12:00N 46°30' W 001°47'0 0.0
2017-Jul-26 11:30N 46°30' W 001°47'0 0.0
2017-Jul-26 11:00N 46°30' W 001°47'0 0.0
2017-Jul-26 10:30N 46°30' W 001°47'0 0.8
2017-Jul-26 10:00N 46°30' W 001°48'4 8.7
2017-Jul-26 09:30N 46°25' W 001°48'4 8.9
2017-Jul-26 09:00N 46°21' W 001°49'4 8.7
2017-Jul-26 08:30N 46°17' W 001°50'4 8.8
2017-Jul-26 08:00N 46°12' W 001°51'0 0.8
2017-Jul-26 07:29N 46°12' W 001°51'0 0.8
2017-Jul-26 07:00N 46°12' W 001°50'1 2.0
2017-Jul-26 06:29N 46°12' W 001°49'1 0.0
2017-Jul-25 13:49N 46°13' W 001°49'0 0.9
2017-Jul-25 13:28N 46°12' W 001°49'1 1.4
2017-Jul-25 13:00N 46°12' W 001°49'2 0.8
2017-Jul-25 11:00N 46°11' W 001°47'0 0.3
2017-Jul-25 09:35N 46°10' W 001°47'0 2.4
2017-Jul-25 09:30N 46°10' W 001°47'7 1.2
2017-Jul-25 03:42N 46°17' W 001°46'2 9.0
2017-Jul-25 03:26N 46°20' W 001°46'4 9.1
2017-Jul-25 03:00N 46°24' W 001°47'4 9.0
2017-Jul-25 02:30N 46°28' W 001°47'2 3.5
2017-Jul-25 02:00N 46°30' W 001°47'0 0.0
2017-Jul-25 01:30N 46°30' W 001°47'0 0.0
2017-Jul-25 01:00N 46°30' W 001°47'0 0.0
2017-Jul-25 00:30N 46°30' W 001°47'0 0.0
2017-Jul-25 00:00N 46°30' W 001°47'0 0.0
2017-Jul-24 23:30N 46°30' W 001°47'0 0.0
2017-Jul-24 23:00N 46°30' W 001°47'0 0.0
2017-Jul-24 22:30N 46°30' W 001°47'0 0.0
2017-Jul-24 22:00N 46°30' W 001°47'0 0.0
2017-Jul-24 21:30N 46°30' W 001°47'0 0.0
2017-Jul-24 21:00N 46°30' W 001°47'0 0.0
2017-Jul-24 20:30N 46°30' W 001°47'0 0.0
2017-Jul-24 20:00N 46°30' W 001°47'0 0.0
2017-Jul-24 19:30N 46°30' W 001°47'0 0.0
2017-Jul-24 19:00N 46°30' W 001°47'0 0.0
2017-Jul-24 18:30N 46°30' W 001°47'0 0.0
2017-Jul-24 18:00N 46°30' W 001°47'0 0.0
2017-Jul-24 17:30N 46°30' W 001°47'0 0.1
2017-Jul-24 17:00N 46°30' W 001°47'0 0.0
2017-Jul-24 16:30N 46°30' W 001°47'0 0.0
2017-Jul-24 16:00N 46°30' W 001°47'0 0.0
2017-Jul-24 13:00N 46°30' W 001°47'1 2.7
2017-Jul-24 12:30N 46°29' W 001°47'4 8.0
2017-Jul-24 12:00N 46°25' W 001°46'4 8.4
2017-Jul-24 11:30N 46°20' W 001°46'4 8.7
2017-Jul-24 11:00N 46°16' W 001°46'5 0.3
2017-Jul-23 16:50N 46°11' W 001°48'2 7.4
2017-Jul-23 16:30N 46°12' W 001°50'21 0.7
2017-Jul-22 09:47N 46°07' W 001°20'2 7.4
2017-Jul-22 09:30N 46°07' W 001°17'3 6.1
2017-Jul-22 09:00N 46°09' W 001°13'0 0.0
2017-Jul-22 08:30N 46°09' W 001°13'0 0.0
2017-Jul-22 08:00N 46°09' W 001°13'0 0.0
2017-Jul-22 07:30N 46°09' W 001°13'0 0.0
2017-Jul-22 07:00N 46°09' W 001°13'0 0.0
2017-Jul-22 06:30N 46°09' W 001°13'0 0.0
2017-Jul-22 06:00N 46°09' W 001°13'0 0.0
2017-Jul-22 05:31N 46°09' W 001°13'0 0.0
2017-Jul-22 05:00N 46°09' W 001°13'0 0.0
2017-Jul-22 04:30N 46°09' W 001°13'0 0.2
2017-Jul-22 04:00N 46°09' W 001°13'4 8.1
2017-Jul-22 03:30N 46°07' W 001°18'5 9.0
2017-Jul-22 03:00N 46°07' W 001°25'3 0.1
2017-Jul-21 03:16N 46°07' W 001°21'3 9.8
2017-Jul-21 03:00N 46°07' W 001°18'4 7.0
2017-Jul-21 02:30N 46°09' W 001°13'0 0.0
2017-Jul-21 02:01N 46°09' W 001°13'0 0.0
2017-Jul-21 01:30N 46°09' W 001°13'0 0.0
2017-Jul-21 01:01N 46°09' W 001°13'0 0.0
2017-Jul-21 00:30N 46°09' W 001°13'0 0.0
2017-Jul-21 00:00N 46°09' W 001°13'0 0.0
2017-Jul-20 23:31N 46°09' W 001°13'0 0.0
2017-Jul-20 23:00N 46°09' W 001°13'0 0.0
2017-Jul-20 22:30N 46°09' W 001°13'0 0.0
2017-Jul-20 22:01N 46°09' W 001°13'0 0.0
2017-Jul-20 21:30N 46°09' W 001°13'0 0.0
2017-Jul-20 21:00N 46°09' W 001°13'4 8.0
2017-Jul-20 20:30N 46°07' W 001°18'5 9.7
2017-Jul-20 20:00N 46°07' W 001°25'21 0.5
2017-Jul-19 02:49N 46°15' W 001°54'3 8.6
2017-Jul-19 02:27N 46°18' W 001°55'4 8.7
2017-Jul-19 02:00N 46°22' W 001°57'4 7.5
2017-Jul-19 01:30N 46°25' W 001°59'4 9.0
2017-Jul-19 01:00N 46°27' W 001°53'4 8.7
2017-Jul-19 00:30N 46°29' W 001°47'1 2.3
2017-Jul-19 00:00N 46°30' W 001°47'0 0.0
2017-Jul-18 23:30N 46°30' W 001°47'0 0.0
2017-Jul-18 23:00N 46°30' W 001°47'0 0.0
2017-Jul-18 22:30N 46°30' W 001°47'0 0.0
2017-Jul-18 22:00N 46°30' W 001°47'0 0.0
2017-Jul-18 21:30N 46°30' W 001°47'0 0.0
2017-Jul-18 21:00N 46°30' W 001°47'0 0.0
2017-Jul-18 20:30N 46°30' W 001°47'0 0.0
2017-Jul-18 20:00N 46°30' W 001°47'0 0.0
2017-Jul-18 19:30N 46°30' W 001°47'0 0.0
2017-Jul-18 19:00N 46°30' W 001°47'  

Dump ship's entire track history